createdAt,value
2018-04-18T00:01:34.230Z,101293.34
2018-04-18T00:04:00.544Z,101288.94
2018-04-18T00:06:27.599Z,101297.70
2018-04-18T00:08:53.899Z,101297.41
2018-04-18T00:11:20.308Z,101298.30
2018-04-18T00:13:46.570Z,101299.86
2018-04-18T00:16:12.952Z,101301.35
2018-04-18T00:18:39.218Z,101300.74
2018-04-18T00:21:05.658Z,101307.14
2018-04-18T00:23:31.937Z,101302.56
2018-04-18T00:25:58.295Z,101305.08
2018-04-18T00:28:24.623Z,101308.94
2018-04-18T00:30:51.670Z,101312.30
2018-04-18T00:33:17.958Z,101309.30
2018-04-18T00:35:45.081Z,101305.34
2018-04-18T00:38:11.376Z,101315.40
2018-04-18T00:40:37.678Z,101316.30
2018-04-18T00:43:03.992Z,101317.91
2018-04-18T00:45:31.029Z,101322.75
2018-04-18T00:47:57.345Z,101318.30
2018-04-18T00:50:23.643Z,101320.80
2018-04-18T00:52:49.943Z,101320.64
2018-04-18T00:55:16.983Z,101329.84
2018-04-18T00:57:43.994Z,101326.41
2018-04-18T01:00:10.719Z,101323.30
2018-04-18T01:02:37.038Z,101323.81
2018-04-18T01:05:03.308Z,101315.94
2018-04-18T01:07:29.600Z,101313.45
2018-04-18T01:09:55.881Z,101306.58
2018-04-18T01:12:22.203Z,101301.28
2018-04-18T01:14:48.563Z,101300.82
2018-04-18T01:17:15.959Z,101300.52
2018-04-18T01:19:42.252Z,101302.63
2018-04-18T01:22:08.579Z,101295.65
2018-04-18T01:24:35.605Z,101290.20
2018-04-18T01:27:01.935Z,101282.95
2018-04-18T01:29:29.086Z,101290.70
2018-04-18T01:31:55.452Z,101296.08
2018-04-18T01:34:21.769Z,101291.49
2018-04-18T01:36:48.801Z,101295.35
2018-04-18T01:39:15.886Z,101297.97
2018-04-18T01:41:42.238Z,101298.63
2018-04-18T01:44:08.551Z,101302.80
2018-04-18T01:46:34.823Z,101301.07
2018-04-18T01:49:19.673Z,101294.17
2018-04-18T01:51:46.000Z,101298.47
2018-04-18T01:54:12.321Z,101286.81
2018-04-18T01:56:38.645Z,101302.48
2018-04-18T01:59:04.916Z,101308.64
2018-04-18T02:01:31.173Z,101303.63
2018-04-18T02:03:58.173Z,101318.63
2018-04-18T02:06:24.475Z,101323.37
2018-04-18T02:08:50.793Z,101326.31
2018-04-18T02:11:17.099Z,101327.26
2018-04-18T02:13:43.403Z,101330.43
2018-04-18T02:16:09.738Z,101324.38
2018-04-18T02:18:36.366Z,101327.84
2018-04-18T02:21:02.691Z,101328.23
2018-04-18T02:23:28.988Z,101327.97
2018-04-18T02:25:55.322Z,101334.06
2018-04-18T02:28:21.607Z,101330.98
2018-04-18T02:30:47.908Z,101330.66
2018-04-18T02:33:14.196Z,101332.00
2018-04-18T02:35:40.534Z,101336.68
2018-04-18T02:38:06.904Z,101338.80
2018-04-18T02:40:33.188Z,101339.77
2018-04-18T02:43:00.185Z,101339.80
2018-04-18T02:45:26.448Z,101336.55
2018-04-18T02:47:52.738Z,101339.82
2018-04-18T02:50:19.065Z,101341.30
2018-04-18T02:52:45.354Z,101338.02
2018-04-18T02:55:11.639Z,101335.84
2018-04-18T02:57:37.957Z,101334.78
2018-04-18T03:00:04.258Z,101338.48
2018-04-18T03:02:31.954Z,101340.61
2018-04-18T03:04:58.253Z,101334.88
2018-04-18T03:07:24.590Z,101340.64
2018-04-18T03:09:50.876Z,101345.19
2018-04-18T03:12:17.223Z,101344.92
2018-04-18T03:14:44.323Z,101344.17
2018-04-18T03:17:10.621Z,101346.00
2018-04-18T03:19:37.089Z,101347.09
2018-04-18T03:22:03.432Z,101346.92
2018-04-18T03:24:29.759Z,101345.09
2018-04-18T03:26:56.070Z,101342.77
2018-04-18T03:29:22.376Z,101347.30
2018-04-18T03:31:48.650Z,101347.80
2018-04-18T03:34:14.945Z,101345.86
2018-04-18T03:36:41.293Z,101349.58
2018-04-18T03:39:07.560Z,101357.88
2018-04-18T03:41:33.828Z,101355.96
2018-04-18T03:44:00.904Z,101351.09
2018-04-18T03:46:27.152Z,101361.98
2018-04-18T03:48:53.485Z,101359.03
2018-04-18T03:51:19.811Z,101364.27
2018-04-18T03:53:46.168Z,101366.72
2018-04-18T03:56:12.488Z,101366.45
2018-04-18T03:58:38.902Z,101361.80
2018-04-18T04:01:05.201Z,101358.91
2018-04-18T04:03:31.485Z,101362.45
2018-04-18T04:05:57.782Z,101355.67
2018-04-18T04:08:24.144Z,101361.48
2018-04-18T04:10:50.421Z,101366.86
2018-04-18T04:13:17.541Z,101367.77
2018-04-18T04:15:44.561Z,101368.11
2018-04-18T04:18:29.621Z,101372.91
2018-04-18T04:21:14.448Z,101372.59
2018-04-18T04:24:00.175Z,101373.63
2018-04-18T04:26:26.438Z,101381.64
2018-04-18T04:28:52.745Z,101386.66
2018-04-18T04:31:19.058Z,101384.03
2018-04-18T04:33:45.340Z,101381.67
2018-04-18T04:36:11.678Z,101378.32
2018-04-18T04:38:38.712Z,101396.70
2018-04-18T04:41:04.987Z,101400.63
2018-04-18T04:43:32.335Z,101400.45
2018-04-18T04:45:58.669Z,101398.95
2018-04-18T04:48:24.969Z,101396.16
2018-04-18T04:50:52.077Z,101405.19
2018-04-18T04:53:18.393Z,101401.94
2018-04-18T04:55:44.679Z,101403.78
2018-04-18T04:58:10.969Z,101413.78
2018-04-18T05:00:37.278Z,101408.08
2018-04-18T05:03:03.541Z,101411.92
2018-04-18T05:05:29.932Z,101415.06
2018-04-18T05:07:56.224Z,101418.91
2018-04-18T05:10:22.495Z,101425.49
2018-04-18T05:12:48.856Z,101424.67
2018-04-18T05:15:15.163Z,101424.75
2018-04-18T05:17:41.516Z,101433.19
2018-04-18T05:20:07.819Z,101437.75
2018-04-18T05:22:34.230Z,101440.89
2018-04-18T05:25:01.264Z,101446.23
2018-04-18T05:27:27.559Z,101447.66
2018-04-18T05:29:53.923Z,101449.45
2018-04-18T05:32:20.323Z,101455.04
2018-04-18T05:34:46.602Z,101460.11
2018-04-18T05:37:13.660Z,101458.48
2018-04-18T05:39:40.690Z,101453.41
2018-04-18T05:42:06.981Z,101456.50
2018-04-18T05:44:33.308Z,101457.13
2018-04-18T05:46:59.593Z,101462.20
2018-04-18T05:49:26.654Z,101468.50
2018-04-18T05:51:52.971Z,101474.88
2018-04-18T05:54:20.009Z,101475.97
2018-04-18T05:56:46.321Z,101475.73
2018-04-18T05:59:12.629Z,101470.55
2018-04-18T06:01:38.984Z,101477.45
2018-04-18T06:04:05.282Z,101475.75
2018-04-18T06:06:31.607Z,101476.12
2018-04-18T06:08:58.661Z,101479.80
2018-04-18T06:11:24.955Z,101476.09
2018-04-18T06:13:51.996Z,101477.58
2018-04-18T06:16:19.045Z,101479.65
2018-04-18T06:18:46.067Z,101478.92
2018-04-18T06:21:12.400Z,101482.28
2018-04-18T06:23:38.704Z,101475.33
2018-04-18T06:26:04.989Z,101483.84
2018-04-18T06:28:32.007Z,101482.19
2018-04-18T06:30:58.257Z,101484.41
2018-04-18T06:33:25.311Z,101489.50
2018-04-18T06:35:52.345Z,101490.34
2018-04-18T06:38:25.628Z,101492.66
2018-04-18T06:40:51.950Z,101494.64
2018-04-18T06:43:18.243Z,101498.72
2018-04-18T06:45:44.547Z,101491.44
2018-04-18T06:48:11.629Z,101498.03
2018-04-18T06:50:38.034Z,101498.00
2018-04-18T06:53:05.150Z,101500.12
2018-04-18T06:55:31.523Z,101504.09
2018-04-18T06:57:57.846Z,101506.36
2018-04-18T07:00:24.169Z,101498.37
2018-04-18T07:02:51.288Z,101501.02
2018-04-18T07:05:17.610Z,101498.97
2018-04-18T07:07:43.988Z,101500.67
2018-04-18T07:10:11.030Z,101503.48
2018-04-18T07:12:38.077Z,101504.59
2018-04-18T07:15:05.129Z,101508.79
2018-04-18T07:17:32.132Z,101504.27
2018-04-18T07:19:58.407Z,101501.25
2018-04-18T07:22:25.477Z,101507.34
2018-04-18T07:24:51.819Z,101503.70
2018-04-18T07:27:18.107Z,101505.13
2018-04-18T07:29:45.201Z,101500.10
2018-04-18T07:32:11.519Z,101503.89
2018-04-18T07:34:37.801Z,101511.11
2018-04-18T07:37:04.130Z,101508.77
2018-04-18T07:39:30.513Z,101513.38
2018-04-18T07:41:57.720Z,101515.77
2018-04-18T07:44:24.026Z,101516.18
2018-04-18T07:46:50.387Z,101514.43
2018-04-18T07:49:16.725Z,101517.03
2018-04-18T07:51:43.816Z,101513.19
2018-04-18T07:54:10.103Z,101517.93
2018-04-18T07:56:36.671Z,101520.50
2018-04-18T07:59:03.001Z,101515.78
2018-04-18T08:01:29.233Z,101519.00
2018-04-18T08:03:55.526Z,101523.60
2018-04-18T08:06:21.920Z,101521.43
2018-04-18T08:08:48.237Z,101523.20
2018-04-18T08:11:14.640Z,101521.37
2018-04-18T08:13:41.705Z,101521.27
2018-04-18T08:16:07.998Z,101525.41
2018-04-18T08:18:34.382Z,101522.27
2018-04-18T08:21:00.766Z,101522.53
2018-04-18T08:23:27.096Z,101525.55
2018-04-18T08:25:55.686Z,101520.33
2018-04-18T08:28:22.756Z,101526.38
2018-04-18T08:30:49.088Z,101524.73
2018-04-18T08:33:15.424Z,101529.42
2018-04-18T08:35:41.749Z,101527.94
2018-04-18T08:38:08.837Z,101535.25
2018-04-18T08:40:35.195Z,101527.23
2018-04-18T08:43:01.497Z,101532.20
2018-04-18T08:45:27.826Z,101531.84
2018-04-18T08:47:54.116Z,101532.63
2018-04-18T08:50:21.173Z,101532.65
2018-04-18T08:52:47.535Z,101534.84
2018-04-18T08:55:13.835Z,101529.59
2018-04-18T08:57:40.168Z,101533.58
2018-04-18T09:00:06.509Z,101540.62
2018-04-18T09:02:32.867Z,101535.67
2018-04-18T09:04:59.227Z,101535.63
2018-04-18T09:07:25.596Z,101538.37
2018-04-18T09:09:51.902Z,101539.80
2018-04-18T09:12:18.995Z,101541.62
2018-04-18T09:14:45.340Z,101540.93
2018-04-18T09:17:11.664Z,101540.95
2018-04-18T09:19:37.995Z,101539.06
2018-04-18T09:22:04.352Z,101537.52
2018-04-18T09:24:30.625Z,101538.22
2018-04-18T09:26:57.692Z,101539.06
2018-04-18T09:29:24.055Z,101539.73
2018-04-18T09:31:50.337Z,101543.63
2018-04-18T09:34:16.657Z,101543.03
2018-04-18T09:36:43.737Z,101541.77
2018-04-18T09:39:10.075Z,101540.89
2018-04-18T09:41:36.370Z,101547.67
2018-04-18T09:44:03.411Z,101542.05
2018-04-18T09:46:30.512Z,101545.56
2018-04-18T09:48:56.834Z,101540.63
2018-04-18T09:51:23.188Z,101545.42
2018-04-18T09:53:49.546Z,101542.50
2018-04-18T09:56:16.590Z,101544.84
2018-04-18T09:58:43.009Z,101533.31
2018-04-18T10:01:09.300Z,101543.58
2018-04-18T10:03:45.651Z,101544.61
2018-04-18T10:06:12.051Z,101549.61
2018-04-18T10:08:39.121Z,101553.20
2018-04-18T10:11:06.176Z,101549.41
2018-04-18T10:13:32.517Z,101551.50
2018-04-18T10:15:58.875Z,101550.52
2018-04-18T10:18:25.159Z,101543.95
2018-04-18T10:20:52.238Z,101537.12
2018-04-18T10:23:18.783Z,101538.14
2018-04-18T10:25:45.165Z,101544.26
2018-04-18T10:28:11.455Z,101546.33
2018-04-18T10:30:38.108Z,101536.33
2018-04-18T10:33:04.438Z,101540.77
2018-04-18T10:35:30.792Z,101534.98
2018-04-18T10:37:57.128Z,101533.22
2018-04-18T10:40:24.136Z,101531.66
2018-04-18T10:42:50.444Z,101534.19
2018-04-18T10:45:16.815Z,101529.69
2018-04-18T10:47:43.959Z,101529.11
2018-04-18T10:50:10.373Z,101530.53
2018-04-18T10:52:36.745Z,101522.13
2018-04-18T10:55:03.076Z,101530.14
2018-04-18T10:57:29.386Z,101525.47
2018-04-18T10:59:55.737Z,101524.16
2018-04-18T11:02:22.049Z,101519.30
2018-04-18T11:04:48.353Z,101517.70
2018-04-18T11:07:14.666Z,101512.84
2018-04-18T11:09:40.974Z,101520.80
2018-04-18T11:12:07.365Z,101511.52
2018-04-18T11:14:33.727Z,101517.28
2018-04-18T11:17:00.026Z,101509.34
2018-04-18T11:19:26.362Z,101509.89
2018-04-18T11:21:53.383Z,101497.41
2018-04-18T11:24:19.776Z,101496.96
2018-04-18T11:26:46.054Z,101495.70
2018-04-18T11:29:12.365Z,101500.80
2018-04-18T11:31:38.694Z,101500.05
2018-04-18T11:34:05.052Z,101494.52
2018-04-18T11:36:31.379Z,101492.48
2018-04-18T11:38:57.925Z,101498.77
2018-04-18T11:41:24.220Z,101488.25
2018-04-18T11:43:51.309Z,101497.11
2018-04-18T11:46:17.633Z,101495.20
2018-04-18T11:48:43.967Z,101499.80
2018-04-18T11:51:10.336Z,101505.35
2018-04-18T11:53:36.637Z,101504.19
2018-04-18T11:56:02.942Z,101512.48
2018-04-18T11:58:29.217Z,101516.42
2018-04-18T12:00:55.632Z,101513.78
2018-04-18T12:03:21.934Z,101515.89
2018-04-18T12:05:48.221Z,101520.19
2018-04-18T12:08:14.507Z,101522.75
2018-04-18T12:10:40.753Z,101522.35
2018-04-18T12:13:07.069Z,101516.52
2018-04-18T12:15:33.389Z,101521.84
2018-04-18T12:17:59.727Z,101509.86
2018-04-18T12:20:26.035Z,101510.88
2018-04-18T12:22:52.373Z,101513.38
2018-04-18T12:25:18.665Z,101513.70
2018-04-18T12:27:44.989Z,101512.16
2018-04-18T12:30:11.278Z,101516.62
2018-04-18T12:32:37.569Z,101512.64
2018-04-18T12:35:03.831Z,101520.14
2018-04-18T12:37:32.728Z,101513.64
2018-04-18T12:39:59.124Z,101508.53
2018-04-18T12:42:26.141Z,101506.62
2018-04-18T12:44:52.485Z,101502.57
2018-04-18T12:47:18.821Z,101497.19
2018-04-18T12:49:45.098Z,101499.26
2018-04-18T12:52:11.391Z,101495.30
2018-04-18T12:54:37.647Z,101496.77
2018-04-18T12:57:04.062Z,101490.05
2018-04-18T12:59:31.115Z,101494.05
2018-04-18T13:01:57.365Z,101492.23
2018-04-18T13:04:23.637Z,101488.92
2018-04-18T13:06:49.950Z,101494.95
2018-04-18T13:09:16.264Z,101491.48
2018-04-18T13:11:45.107Z,101491.98
2018-04-18T13:14:11.399Z,101489.36
2018-04-18T13:16:37.677Z,101487.06
2018-04-18T13:19:04.731Z,101473.89
2018-04-18T13:21:31.809Z,101470.83
2018-04-18T13:23:58.130Z,101466.66
2018-04-18T13:26:24.483Z,101461.41
2018-04-18T13:28:50.830Z,101464.86
2018-04-18T13:31:17.226Z,101465.19
2018-04-18T13:33:43.590Z,101469.67
2018-04-18T13:36:09.890Z,101465.92
2018-04-18T13:38:36.190Z,101463.49
2018-04-18T13:41:03.257Z,101473.92
2018-04-18T13:43:30.295Z,101457.70
2018-04-18T13:45:57.351Z,101459.00
2018-04-18T13:48:23.740Z,101454.41
2018-04-18T13:50:50.019Z,101454.59
2018-04-18T13:53:16.394Z,101463.20
2018-04-18T13:55:42.690Z,101461.20
2018-04-18T13:58:09.021Z,101466.83
2018-04-18T14:00:35.343Z,101457.84
2018-04-18T14:03:01.706Z,101463.30
2018-04-18T14:05:28.031Z,101462.77
2018-04-18T14:07:54.372Z,101467.70
2018-04-18T14:10:20.682Z,101467.95
2018-04-18T14:12:46.974Z,101462.26
2018-04-18T14:15:14.037Z,101452.19
2018-04-18T14:17:40.334Z,101458.75
2018-04-18T14:20:06.658Z,101452.71
2018-04-18T14:22:33.689Z,101449.83
2018-04-18T14:25:00.033Z,101452.25
2018-04-18T14:27:26.340Z,101445.02
2018-04-18T14:29:52.673Z,101443.03
2018-04-18T14:32:19.110Z,101434.27
2018-04-18T14:34:45.447Z,101445.51
2018-04-18T14:37:11.709Z,101437.00
2018-04-18T14:39:38.039Z,101435.72
2018-04-18T14:42:04.358Z,101433.07
2018-04-18T14:44:30.668Z,101434.72
2018-04-18T14:46:57.019Z,101432.48
2018-04-18T14:49:23.382Z,101435.23
2018-04-18T14:51:50.452Z,101424.86
2018-04-18T14:54:16.904Z,101430.64
2018-04-18T14:56:43.240Z,101417.81
2018-04-18T14:59:09.564Z,101421.26
2018-04-18T15:01:35.887Z,101426.77
2018-04-18T15:04:02.182Z,101421.42
2018-04-18T15:06:28.484Z,101418.23
2018-04-18T15:08:54.763Z,101418.30
2018-04-18T15:11:21.837Z,101423.48
2018-04-18T15:13:48.164Z,101408.81
2018-04-18T15:16:14.460Z,101409.38
2018-04-18T15:18:41.713Z,101412.80
2018-04-18T15:21:08.794Z,101399.66
2018-04-18T15:23:35.168Z,101403.83
2018-04-18T15:26:01.496Z,101406.31
2018-04-18T15:28:27.907Z,101411.12
2018-04-18T15:30:54.300Z,101402.22
2018-04-18T15:33:21.676Z,101404.61
2018-04-18T15:35:48.043Z,101399.95
2018-04-18T15:38:14.388Z,101407.89
2018-04-18T15:40:40.724Z,101404.32
2018-04-18T15:43:07.821Z,101399.13
2018-04-18T15:45:34.154Z,101393.98
2018-04-18T15:48:00.493Z,101396.49
2018-04-18T15:50:26.845Z,101396.92
2018-04-18T15:52:53.177Z,101393.84
2018-04-18T15:55:19.506Z,101392.39
2018-04-18T15:57:45.850Z,101378.97
2018-04-18T16:00:12.142Z,101387.01
2018-04-18T16:02:38.478Z,101385.92
2018-04-18T16:05:04.798Z,101387.91
2018-04-18T16:07:31.902Z,101386.70
2018-04-18T16:09:58.209Z,101380.03
2018-04-18T16:12:25.354Z,101378.99
2018-04-18T16:14:52.506Z,101378.91
2018-04-18T16:17:18.850Z,101377.14
2018-04-18T16:19:45.280Z,101374.40
2018-04-18T16:22:11.631Z,101377.84
2018-04-18T16:24:38.177Z,101375.63
2018-04-18T16:27:05.277Z,101376.61
2018-04-18T16:29:42.746Z,101375.98
2018-04-18T16:32:09.118Z,101370.77
2018-04-18T16:34:35.684Z,101371.36
2018-04-18T16:37:02.025Z,101368.81
2018-04-18T16:39:29.091Z,101368.28
2018-04-18T16:41:56.146Z,101364.98
2018-04-18T16:44:22.650Z,101360.53
2018-04-18T16:46:48.984Z,101357.47
2018-04-18T16:49:15.288Z,101357.69
2018-04-18T16:51:41.564Z,101356.64
2018-04-18T16:54:08.665Z,101348.47
2018-04-18T16:56:35.018Z,101351.17
2018-04-18T16:59:01.296Z,101341.09
2018-04-18T17:01:27.594Z,101343.52
2018-04-18T17:03:54.650Z,101337.31
2018-04-18T17:06:21.766Z,101340.06
2018-04-18T17:08:48.245Z,101343.51
2018-04-18T17:11:14.723Z,101344.22
2018-04-18T17:13:41.159Z,101347.55
2018-04-18T17:16:07.830Z,101338.74
2018-04-18T17:18:34.154Z,101335.65
2018-04-18T17:21:00.549Z,101338.20
2018-04-18T17:23:26.905Z,101332.06
2018-04-18T17:25:53.238Z,101327.61
2018-04-18T17:28:19.579Z,101330.49
2018-04-18T17:30:46.690Z,101327.41
2018-04-18T17:33:13.131Z,101334.84
2018-04-18T17:35:40.270Z,101328.97
2018-04-18T17:38:06.565Z,101335.56
2018-04-18T17:40:33.661Z,101335.97
2018-04-18T17:43:00.014Z,101329.61
2018-04-18T17:45:26.549Z,101327.04
2018-04-18T17:47:53.012Z,101337.42
2018-04-18T17:50:20.063Z,101336.67
2018-04-18T17:52:47.181Z,101337.16
2018-04-18T17:55:13.518Z,101342.83
2018-04-18T17:57:42.206Z,101345.45
2018-04-18T18:00:08.590Z,101343.59
2018-04-18T18:02:34.936Z,101333.89
2018-04-18T18:05:02.074Z,101339.06
2018-04-18T18:07:28.395Z,101351.34
2018-04-18T18:09:54.725Z,101343.40
2018-04-18T18:12:21.113Z,101353.22
2018-04-18T18:14:47.389Z,101348.09
2018-04-18T18:17:13.724Z,101350.39
2018-04-18T18:19:39.996Z,101349.63
2018-04-18T18:22:06.322Z,101356.50
2018-04-18T18:24:32.623Z,101351.93
2018-04-18T18:26:58.925Z,101352.63
2018-04-18T18:29:25.968Z,101350.25
2018-04-18T18:31:53.076Z,101347.62
2018-04-18T18:34:19.362Z,101359.38
2018-04-18T18:36:45.729Z,101356.45
2018-04-18T18:39:12.061Z,101362.64
2018-04-18T18:41:38.360Z,101355.30
2018-04-18T18:44:04.660Z,101356.41
2018-04-18T18:46:30.978Z,101358.11
2018-04-18T18:48:57.318Z,101354.88
2018-04-18T18:51:24.373Z,101362.66
2018-04-18T18:53:51.506Z,101366.55
2018-04-18T18:56:18.204Z,101366.13
2018-04-18T18:58:44.590Z,101365.52
2018-04-18T19:01:11.754Z,101380.36
2018-04-18T19:03:39.152Z,101376.54
2018-04-18T19:06:05.692Z,101379.86
2018-04-18T19:08:32.082Z,101374.54
2018-04-18T19:10:59.497Z,101385.16
2018-04-18T19:13:26.685Z,101390.55
2018-04-18T19:15:53.777Z,101390.36
2018-04-18T19:18:20.119Z,101384.30
2018-04-18T19:20:46.427Z,101386.59
2018-04-18T19:23:12.724Z,101396.56
2018-04-18T19:25:39.764Z,101404.86
2018-04-18T19:28:06.164Z,101401.66
2018-04-18T19:30:32.418Z,101401.02
2018-04-18T19:32:58.716Z,101399.97
2018-04-18T19:35:25.039Z,101396.88
2018-04-18T19:37:51.403Z,101396.36
2018-04-18T19:40:17.689Z,101394.38
2018-04-18T19:42:51.303Z,101401.91
2018-04-18T19:45:17.629Z,101397.36
2018-04-18T19:47:43.998Z,101401.64
2018-04-18T19:50:10.306Z,101402.66
2018-04-18T19:52:36.598Z,101407.13
2018-04-18T19:55:02.952Z,101406.37
2018-04-18T19:57:29.248Z,101405.45
2018-04-18T19:59:56.282Z,101398.00
2018-04-18T20:02:23.391Z,101403.30
2018-04-18T20:04:49.728Z,101395.77
2018-04-18T20:07:16.029Z,101398.77
2018-04-18T20:09:42.774Z,101400.48
2018-04-18T20:12:09.123Z,101394.58
2018-04-18T20:14:35.415Z,101393.89
2018-04-18T20:17:02.436Z,101391.02
2018-04-18T20:19:28.695Z,101383.27
2018-04-18T20:21:55.726Z,101398.08
2018-04-18T20:24:21.997Z,101392.69
2018-04-18T20:26:48.260Z,101396.21
2018-04-18T20:29:14.544Z,101393.17
2018-04-18T20:31:41.568Z,101395.30
2018-04-18T20:34:08.626Z,101402.52
2018-04-18T20:36:40.797Z,101398.02
2018-04-18T20:39:07.950Z,101402.41
2018-04-18T20:41:34.989Z,101400.72
2018-04-18T20:44:02.012Z,101406.86
2018-04-18T20:46:28.291Z,101408.71
2018-04-18T20:48:54.587Z,101413.55
2018-04-18T20:51:20.868Z,101411.09
2018-04-18T20:53:47.194Z,101411.70
2018-04-18T20:56:13.490Z,101406.91
2018-04-18T20:58:40.568Z,101405.80
2018-04-18T21:01:06.875Z,101410.32
2018-04-18T21:03:34.785Z,101408.60
2018-04-18T21:06:01.055Z,101405.66
2018-04-18T21:08:28.108Z,101405.16
2018-04-18T21:10:55.150Z,101404.31
2018-04-18T21:13:21.466Z,101405.81
2018-04-18T21:15:47.759Z,101404.72
2018-04-18T21:18:14.084Z,101403.83
2018-04-18T21:20:40.367Z,101401.97
2018-04-18T21:23:06.736Z,101405.95
2018-04-18T21:25:33.003Z,101404.83
2018-04-18T21:27:59.257Z,101403.13
2018-04-18T21:30:27.039Z,101409.64
2018-04-18T21:32:54.058Z,101415.14
2018-04-18T21:35:20.344Z,101424.11
2018-04-18T21:37:46.610Z,101422.45
2018-04-18T21:40:13.320Z,101423.93
2018-04-18T21:42:39.601Z,101417.05
2018-04-18T21:45:05.880Z,101418.23
2018-04-18T21:47:32.126Z,101420.45
2018-04-18T21:49:58.537Z,101425.41
2018-04-18T21:52:24.837Z,101432.33
2018-04-18T21:54:51.864Z,101426.45
2018-04-18T21:57:18.160Z,101422.86
2018-04-18T21:59:44.469Z,101427.63
2018-04-18T22:02:10.759Z,101431.16
2018-04-18T22:04:37.047Z,101433.13
2018-04-18T22:07:03.323Z,101428.55
2018-04-18T22:09:29.645Z,101433.97
2018-04-18T22:11:55.922Z,101434.02
2018-04-18T22:14:22.201Z,101433.92
2018-04-18T22:16:48.521Z,101424.31
2018-04-18T22:19:14.777Z,101433.92
2018-04-18T22:21:41.138Z,101432.75
2018-04-18T22:24:08.179Z,101430.69
2018-04-18T22:26:35.207Z,101430.16
2018-04-18T22:29:01.467Z,101433.69
2018-04-18T22:31:27.751Z,101444.61
2018-04-18T22:33:54.021Z,101444.38
2018-04-18T22:36:20.315Z,101446.45
2018-04-18T22:38:46.582Z,101435.40
2018-04-18T22:41:13.113Z,101439.97
2018-04-18T22:43:40.147Z,101435.21
2018-04-18T22:46:07.177Z,101438.26
2018-04-18T22:48:34.967Z,101444.84
2018-04-18T22:51:01.981Z,101450.05
2018-04-18T22:53:28.243Z,101453.47
2018-04-18T22:55:56.221Z,101454.01
2018-04-18T22:58:22.515Z,101453.96
2018-04-18T23:00:49.631Z,101456.16
2018-04-18T23:03:15.950Z,101453.45
2018-04-18T23:05:42.263Z,101453.23
2018-04-18T23:08:08.576Z,101451.84
2018-04-18T23:10:34.890Z,101449.27
2018-04-18T23:13:01.192Z,101450.37
2018-04-18T23:15:27.487Z,101447.90
2018-04-18T23:17:55.361Z,101443.85
2018-04-18T23:20:21.717Z,101450.86
2018-04-18T23:22:47.911Z,101452.16
2018-04-18T23:25:14.200Z,101453.73
2018-04-18T23:27:40.486Z,101450.20
2018-04-18T23:30:06.732Z,101456.96
2018-04-18T23:32:33.025Z,101455.77
2018-04-18T23:35:00.064Z,101454.11
2018-04-18T23:37:26.365Z,101449.88
2018-04-18T23:39:52.652Z,101442.86
2018-04-18T23:42:19.224Z,101450.50
2018-04-18T23:44:45.574Z,101445.88
2018-04-18T23:47:12.851Z,101443.24
2018-04-18T23:49:39.175Z,101439.88
2018-04-18T23:52:06.223Z,101443.28
2018-04-18T23:54:33.290Z,101443.41
2018-04-18T23:57:00.323Z,101437.51
2018-04-18T23:59:27.363Z,101436.83
